sensor_id;sensor_type;location;lat;lon;timestamp;P1;durP1;ratioP1;P2;durP2;ratioP2
46561;SDS011;32289;42.688;23.330;2022-10-22T00:01:21;21.73;;;9.32;;
46561;SDS011;32289;42.688;23.330;2022-10-22T00:05:03;17.08;;;8.65;;
46561;SDS011;32289;42.688;23.330;2022-10-22T00:08:45;23.10;;;10.50;;
46561;SDS011;32289;42.688;23.330;2022-10-22T00:12:25;15.40;;;8.43;;
46561;SDS011;32289;42.688;23.330;2022-10-22T00:16:06;21.30;;;10.15;;
46561;SDS011;32289;42.688;23.330;2022-10-22T00:19:48;21.00;;;8.98;;
46561;SDS011;32289;42.688;23.330;2022-10-22T00:23:28;20.27;;;9.30;;
46561;SDS011;32289;42.688;23.330;2022-10-22T00:27:09;19.98;;;9.45;;
46561;SDS011;32289;42.688;23.330;2022-10-22T00:31:00;22.30;;;9.07;;
46561;SDS011;32289;42.688;23.330;2022-10-22T00:38:22;21.85;;;9.48;;
46561;SDS011;32289;42.688;23.330;2022-10-22T00:42:02;20.55;;;9.50;;
46561;SDS011;32289;42.688;23.330;2022-10-22T00:45:44;21.25;;;9.77;;
46561;SDS011;32289;42.688;23.330;2022-10-22T00:49:25;18.95;;;9.50;;
46561;SDS011;32289;42.688;23.330;2022-10-22T00:53:07;17.98;;;8.68;;
46561;SDS011;32289;42.688;23.330;2022-10-22T00:56:52;26.77;;;9.00;;
46561;SDS011;32289;42.688;23.330;2022-10-22T01:00:33;17.23;;;8.77;;
46561;SDS011;32289;42.688;23.330;2022-10-22T01:04:13;17.17;;;8.40;;
46561;SDS011;32289;42.688;23.330;2022-10-22T01:07:54;19.88;;;9.05;;
46561;SDS011;32289;42.688;23.330;2022-10-22T01:15:52;17.88;;;9.02;;
46561;SDS011;32289;42.688;23.330;2022-10-22T01:24:17;29.95;;;9.90;;
46561;SDS011;32289;42.688;23.330;2022-10-22T01:28:09;21.92;;;8.90;;
46561;SDS011;32289;42.688;23.330;2022-10-22T01:32:14;20.08;;;9.20;;
46561;SDS011;32289;42.688;23.330;2022-10-22T01:35:57;17.27;;;8.45;;
46561;SDS011;32289;42.688;23.330;2022-10-22T01:39:39;19.55;;;10.07;;
46561;SDS011;32289;42.688;23.330;2022-10-22T01:43:22;22.80;;;9.63;;
46561;SDS011;32289;42.688;23.330;2022-10-22T01:47:14;23.75;;;10.55;;
46561;SDS011;32289;42.688;23.330;2022-10-22T02:03:05;21.27;;;10.65;;
46561;SDS011;32289;42.688;23.330;2022-10-22T02:06:56;27.05;;;10.93;;
46561;SDS011;32289;42.688;23.330;2022-10-22T02:10:41;25.27;;;11.00;;
46561;SDS011;32289;42.688;23.330;2022-10-22T02:14:24;25.60;;;10.98;;
46561;SDS011;32289;42.688;23.330;2022-10-22T02:18:09;23.92;;;11.25;;
46561;SDS011;32289;42.688;23.330;2022-10-22T02:21:50;26.50;;;11.93;;
46561;SDS011;32289;42.688;23.330;2022-10-22T02:25:34;26.00;;;11.50;;
46561;SDS011;32289;42.688;23.330;2022-10-22T02:33:38;17.27;;;9.23;;
46561;SDS011;32289;42.688;23.330;2022-10-22T02:37:24;24.00;;;10.80;;
46561;SDS011;32289;42.688;23.330;2022-10-22T02:41:06;24.35;;;11.05;;
46561;SDS011;32289;42.688;23.330;2022-10-22T02:44:47;21.80;;;10.48;;
46561;SDS011;32289;42.688;23.330;2022-10-22T02:48:27;25.33;;;9.80;;
46561;SDS011;32289;42.688;23.330;2022-10-22T02:52:08;18.80;;;9.70;;
46561;SDS011;32289;42.688;23.330;2022-10-22T02:55:49;22.27;;;9.95;;
46561;SDS011;32289;42.688;23.330;2022-10-22T02:59:29;23.48;;;10.80;;
46561;SDS011;32289;42.688;23.330;2022-10-22T03:03:10;19.05;;;8.95;;
46561;SDS011;32289;42.688;23.330;2022-10-22T03:06:51;28.90;;;12.15;;
46561;SDS011;32289;42.688;23.330;2022-10-22T03:10:31;19.35;;;8.80;;
46561;SDS011;32289;42.688;23.330;2022-10-22T03:14:12;18.50;;;8.80;;
46561;SDS011;32289;42.688;23.330;2022-10-22T03:17:53;21.55;;;9.73;;
46561;SDS011;32289;42.688;23.330;2022-10-22T03:21:51;19.75;;;9.75;;
46561;SDS011;32289;42.688;23.330;2022-10-22T03:25:35;17.17;;;7.95;;
46561;SDS011;32289;42.688;23.330;2022-10-22T03:29:20;20.98;;;8.38;;
46561;SDS011;32289;42.688;23.330;2022-10-22T03:33:02;18.35;;;8.57;;
46561;SDS011;32289;42.688;23.330;2022-10-22T03:36:43;21.23;;;9.40;;
46561;SDS011;32289;42.688;23.330;2022-10-22T03:40:24;15.75;;;8.43;;
46561;SDS011;32289;42.688;23.330;2022-10-22T03:44:05;18.38;;;9.18;;
46561;SDS011;32289;42.688;23.330;2022-10-22T03:47:46;19.23;;;9.18;;
46561;SDS011;32289;42.688;23.330;2022-10-22T03:51:27;16.63;;;9.15;;
46561;SDS011;32289;42.688;23.330;2022-10-22T03:55:08;19.75;;;9.20;;
46561;SDS011;32289;42.688;23.330;2022-10-22T03:58:49;20.05;;;9.80;;
46561;SDS011;32289;42.688;23.330;2022-10-22T04:02:30;17.52;;;8.65;;
46561;SDS011;32289;42.688;23.330;2022-10-22T04:06:11;16.98;;;9.32;;
46561;SDS011;32289;42.688;23.330;2022-10-22T04:09:52;18.40;;;9.77;;
46561;SDS011;32289;42.688;23.330;2022-10-22T04:13:33;20.05;;;9.10;;
46561;SDS011;32289;42.688;23.330;2022-10-22T04:17:14;22.40;;;9.82;;
46561;SDS011;32289;42.688;23.330;2022-10-22T04:20:55;23.33;;;9.70;;
46561;SDS011;32289;42.688;23.330;2022-10-22T04:24:36;17.90;;;9.38;;
46561;SDS011;32289;42.688;23.330;2022-10-22T04:28:17;22.00;;;9.57;;
46561;SDS011;32289;42.688;23.330;2022-10-22T04:31:57;26.23;;;10.48;;
46561;SDS011;32289;42.688;23.330;2022-10-22T04:35:38;19.67;;;10.43;;
46561;SDS011;32289;42.688;23.330;2022-10-22T04:39:19;20.35;;;9.52;;
46561;SDS011;32289;42.688;23.330;2022-10-22T04:42:59;20.58;;;9.43;;
46561;SDS011;32289;42.688;23.330;2022-10-22T04:46:40;23.15;;;8.93;;
46561;SDS011;32289;42.688;23.330;2022-10-22T04:50:21;20.88;;;9.35;;
46561;SDS011;32289;42.688;23.330;2022-10-22T04:54:01;17.92;;;9.23;;
46561;SDS011;32289;42.688;23.330;2022-10-22T04:57:42;19.00;;;9.10;;
46561;SDS011;32289;42.688;23.330;2022-10-22T05:01:25;26.20;;;11.23;;
46561;SDS011;32289;42.688;23.330;2022-10-22T05:05:16;19.10;;;9.27;;
46561;SDS011;32289;42.688;23.330;2022-10-22T05:08:59;17.67;;;8.40;;
46561;SDS011;32289;42.688;23.330;2022-10-22T05:12:41;20.52;;;8.50;;
46561;SDS011;32289;42.688;23.330;2022-10-22T05:16:22;18.92;;;8.98;;
46561;SDS011;32289;42.688;23.330;2022-10-22T05:20:03;28.83;;;9.93;;
46561;SDS011;32289;42.688;23.330;2022-10-22T05:23:45;20.65;;;9.32;;
46561;SDS011;32289;42.688;23.330;2022-10-22T05:27:27;23.15;;;9.20;;
46561;SDS011;32289;42.688;23.330;2022-10-22T05:31:09;19.90;;;8.15;;
46561;SDS011;32289;42.688;23.330;2022-10-22T05:34:51;21.33;;;9.73;;
46561;SDS011;32289;42.688;23.330;2022-10-22T05:38:33;25.77;;;11.10;;
46561;SDS011;32289;42.688;23.330;2022-10-22T05:42:14;22.02;;;9.63;;
46561;SDS011;32289;42.688;23.330;2022-10-22T05:45:55;21.77;;;9.48;;
46561;SDS011;32289;42.688;23.330;2022-10-22T05:49:40;20.80;;;9.13;;
46561;SDS011;32289;42.688;23.330;2022-10-22T05:53:20;23.50;;;9.55;;
46561;SDS011;32289;42.688;23.330;2022-10-22T05:57:01;25.13;;;9.32;;
46561;SDS011;32289;42.688;23.330;2022-10-22T06:00:42;20.48;;;9.25;;
46561;SDS011;32289;42.688;23.330;2022-10-22T06:04:23;19.20;;;8.45;;
46561;SDS011;32289;42.688;23.330;2022-10-22T06:08:03;23.63;;;9.05;;
46561;SDS011;32289;42.688;23.330;2022-10-22T06:11:45;19.75;;;8.77;;
46561;SDS011;32289;42.688;23.330;2022-10-22T06:15:26;16.63;;;9.27;;
46561;SDS011;32289;42.688;23.330;2022-10-22T06:19:08;16.30;;;9.27;;
46561;SDS011;32289;42.688;23.330;2022-10-22T06:22:50;19.02;;;10.07;;
46561;SDS011;32289;42.688;23.330;2022-10-22T06:26:31;22.00;;;10.63;;
46561;SDS011;32289;42.688;23.330;2022-10-22T06:30:12;24.05;;;8.45;;
46561;SDS011;32289;42.688;23.330;2022-10-22T06:33:53;19.20;;;10.13;;
46561;SDS011;32289;42.688;23.330;2022-10-22T06:37:35;22.23;;;9.95;;
46561;SDS011;32289;42.688;23.330;2022-10-22T06:41:16;22.02;;;10.93;;
46561;SDS011;32289;42.688;23.330;2022-10-22T06:44:57;19.95;;;9.38;;
46561;SDS011;32289;42.688;23.330;2022-10-22T06:48:38;16.70;;;9.35;;
46561;SDS011;32289;42.688;23.330;2022-10-22T06:52:19;29.67;;;10.55;;
46561;SDS011;32289;42.688;23.330;2022-10-22T06:56:03;28.80;;;9.80;;
46561;SDS011;32289;42.688;23.330;2022-10-22T06:59:48;25.13;;;11.25;;
46561;SDS011;32289;42.688;23.330;2022-10-22T07:03:29;21.48;;;10.55;;
46561;SDS011;32289;42.688;23.330;2022-10-22T07:07:09;22.88;;;10.68;;
46561;SDS011;32289;42.688;23.330;2022-10-22T07:10:50;26.77;;;11.07;;
46561;SDS011;32289;42.688;23.330;2022-10-22T07:14:31;22.65;;;10.13;;
46561;SDS011;32289;42.688;23.330;2022-10-22T07:18:11;24.45;;;10.77;;
46561;SDS011;32289;42.688;23.330;2022-10-22T07:21:52;24.33;;;9.27;;
46561;SDS011;32289;42.688;23.330;2022-10-22T07:25:33;19.10;;;10.10;;
46561;SDS011;32289;42.688;23.330;2022-10-22T07:29:14;20.92;;;10.98;;
46561;SDS011;32289;42.688;23.330;2022-10-22T07:32:54;23.58;;;10.85;;
46561;SDS011;32289;42.688;23.330;2022-10-22T07:36:35;20.00;;;10.25;;
46561;SDS011;32289;42.688;23.330;2022-10-22T07:40:16;17.58;;;10.27;;
46561;SDS011;32289;42.688;23.330;2022-10-22T07:43:57;21.25;;;10.30;;
46561;SDS011;32289;42.688;23.330;2022-10-22T07:47:37;17.85;;;10.65;;
46561;SDS011;32289;42.688;23.330;2022-10-22T07:51:18;19.13;;;10.10;;
46561;SDS011;32289;42.688;23.330;2022-10-22T07:54:59;16.38;;;9.55;;
46561;SDS011;32289;42.688;23.330;2022-10-22T07:58:40;21.67;;;11.98;;
46561;SDS011;32289;42.688;23.330;2022-10-22T08:02:20;14.13;;;8.20;;
46561;SDS011;32289;42.688;23.330;2022-10-22T08:06:01;20.85;;;10.77;;
46561;SDS011;32289;42.688;23.330;2022-10-22T08:09:42;18.10;;;9.85;;
46561;SDS011;32289;42.688;23.330;2022-10-22T08:13:23;17.15;;;10.02;;
46561;SDS011;32289;42.688;23.330;2022-10-22T08:17:05;25.00;;;9.80;;
46561;SDS011;32289;42.688;23.330;2022-10-22T08:20:46;23.92;;;10.70;;
46561;SDS011;32289;42.688;23.330;2022-10-22T08:24:27;19.27;;;10.63;;
46561;SDS011;32289;42.688;23.330;2022-10-22T08:28:07;16.70;;;9.25;;
46561;SDS011;32289;42.688;23.330;2022-10-22T08:31:49;21.50;;;11.07;;
46561;SDS011;32289;42.688;23.330;2022-10-22T08:35:30;14.25;;;9.55;;
46561;SDS011;32289;42.688;23.330;2022-10-22T08:39:10;14.32;;;9.38;;
46561;SDS011;32289;42.688;23.330;2022-10-22T08:51:21;13.52;;;9.57;;
46561;SDS011;32289;42.688;23.330;2022-10-22T08:55:07;21.30;;;10.63;;
46561;SDS011;32289;42.688;23.330;2022-10-22T08:59:36;17.95;;;9.45;;
46561;SDS011;32289;42.688;23.330;2022-10-22T09:07:02;18.23;;;10.68;;
46561;SDS011;32289;42.688;23.330;2022-10-22T09:10:45;17.33;;;11.63;;
46561;SDS011;32289;42.688;23.330;2022-10-22T09:14:29;16.67;;;10.00;;
46561;SDS011;32289;42.688;23.330;2022-10-22T09:26:33;18.30;;;11.75;;
46561;SDS011;32289;42.688;23.330;2022-10-22T09:30:21;15.25;;;10.57;;
46561;SDS011;32289;42.688;23.330;2022-10-22T09:34:04;17.10;;;9.50;;
46561;SDS011;32289;42.688;23.330;2022-10-22T09:37:47;15.80;;;10.13;;
46561;SDS011;32289;42.688;23.330;2022-10-22T09:41:30;17.30;;;10.02;;
46561;SDS011;32289;42.688;23.330;2022-10-22T09:45:15;19.48;;;9.40;;
46561;SDS011;32289;42.688;23.330;2022-10-22T09:49:17;14.15;;;9.10;;
46561;SDS011;32289;42.688;23.330;2022-10-22T09:53:05;19.67;;;9.10;;
46561;SDS011;32289;42.688;23.330;2022-10-22T10:00:50;15.25;;;8.73;;
46561;SDS011;32289;42.688;23.330;2022-10-22T10:04:34;14.27;;;9.10;;
46561;SDS011;32289;42.688;23.330;2022-10-22T10:08:21;14.85;;;8.88;;
46561;SDS011;32289;42.688;23.330;2022-10-22T10:16:26;16.75;;;10.00;;
46561;SDS011;32289;42.688;23.330;2022-10-22T10:24:12;15.82;;;9.35;;
46561;SDS011;32289;42.688;23.330;2022-10-22T10:28:18;12.05;;;8.15;;
46561;SDS011;32289;42.688;23.330;2022-10-22T10:36:30;11.65;;;7.70;;
46561;SDS011;32289;42.688;23.330;2022-10-22T10:40:26;16.08;;;9.75;;
46561;SDS011;32289;42.688;23.330;2022-10-22T10:48:14;15.57;;;8.45;;
46561;SDS011;32289;42.688;23.330;2022-10-22T11:00:09;14.15;;;7.50;;
46561;SDS011;32289;42.688;23.330;2022-10-22T11:07:45;15.95;;;11.48;;
46561;SDS011;32289;42.688;23.330;2022-10-22T11:11:50;11.93;;;6.85;;
46561;SDS011;32289;42.688;23.330;2022-10-22T11:15:35;10.23;;;7.05;;
46561;SDS011;32289;42.688;23.330;2022-10-22T11:23:15;10.30;;;7.25;;
46561;SDS011;32289;42.688;23.330;2022-10-22T11:27:10;17.05;;;8.23;;
46561;SDS011;32289;42.688;23.330;2022-10-22T11:31:02;10.75;;;7.03;;
46561;SDS011;32289;42.688;23.330;2022-10-22T11:34:48;11.23;;;6.85;;
46561;SDS011;32289;42.688;23.330;2022-10-22T11:38:33;10.35;;;7.40;;
46561;SDS011;32289;42.688;23.330;2022-10-22T11:42:19;11.32;;;6.88;;
46561;SDS011;32289;42.688;23.330;2022-10-22T11:49:57;12.40;;;7.10;;
46561;SDS011;32289;42.688;23.330;2022-10-22T11:53:42;15.77;;;6.60;;
46561;SDS011;32289;42.688;23.330;2022-10-22T11:57:36;12.20;;;7.80;;
46561;SDS011;32289;42.688;23.330;2022-10-22T12:01:25;10.73;;;7.53;;
46561;SDS011;32289;42.688;23.330;2022-10-22T12:09:04;19.05;;;10.20;;
46561;SDS011;32289;42.688;23.330;2022-10-22T12:13:50;12.25;;;8.43;;
46561;SDS011;32289;42.688;23.330;2022-10-22T12:17:08;8.80;;;6.25;;
46561;SDS011;32289;42.688;23.330;2022-10-22T12:20:57;9.75;;;6.00;;
46561;SDS011;32289;42.688;23.330;2022-10-22T12:24:39;14.25;;;6.47;;
46561;SDS011;32289;42.688;23.330;2022-10-22T12:28:23;10.40;;;6.00;;
46561;SDS011;32289;42.688;23.330;2022-10-22T12:32:04;9.82;;;6.00;;
46561;SDS011;32289;42.688;23.330;2022-10-22T12:35:45;11.18;;;5.60;;
46561;SDS011;32289;42.688;23.330;2022-10-22T12:39:27;7.45;;;5.35;;
46561;SDS011;32289;42.688;23.330;2022-10-22T12:43:13;7.97;;;5.18;;
46561;SDS011;32289;42.688;23.330;2022-10-22T12:47:15;8.55;;;5.07;;
46561;SDS011;32289;42.688;23.330;2022-10-22T12:50:57;11.18;;;5.40;;
46561;SDS011;32289;42.688;23.330;2022-10-22T12:54:40;9.32;;;5.70;;
46561;SDS011;32289;42.688;23.330;2022-10-22T12:58:24;14.65;;;7.15;;
46561;SDS011;32289;42.688;23.330;2022-10-22T13:02:14;20.70;;;12.55;;
46561;SDS011;32289;42.688;23.330;2022-10-22T13:09:59;12.70;;;5.53;;
46561;SDS011;32289;42.688;23.330;2022-10-22T13:13:41;13.32;;;6.20;;
46561;SDS011;32289;42.688;23.330;2022-10-22T13:21:54;10.10;;;5.30;;
46561;SDS011;32289;42.688;23.330;2022-10-22T13:25:31;13.70;;;5.43;;
46561;SDS011;32289;42.688;23.330;2022-10-22T13:29:14;9.15;;;4.78;;
46561;SDS011;32289;42.688;23.330;2022-10-22T13:33:02;7.20;;;4.10;;
46561;SDS011;32289;42.688;23.330;2022-10-22T13:37:00;7.63;;;4.43;;
46561;SDS011;32289;42.688;23.330;2022-10-22T13:40:41;11.10;;;5.47;;
46561;SDS011;32289;42.688;23.330;2022-10-22T13:44:22;10.43;;;4.85;;
46561;SDS011;32289;42.688;23.330;2022-10-22T13:48:02;9.13;;;4.75;;
46561;SDS011;32289;42.688;23.330;2022-10-22T13:51:43;11.00;;;4.70;;
46561;SDS011;32289;42.688;23.330;2022-10-22T13:55:26;13.95;;;4.78;;
46561;SDS011;32289;42.688;23.330;2022-10-22T13:59:08;9.90;;;5.95;;
46561;SDS011;32289;42.688;23.330;2022-10-22T14:02:51;14.68;;;7.00;;
46561;SDS011;32289;42.688;23.330;2022-10-22T14:06:34;21.90;;;7.82;;
46561;SDS011;32289;42.688;23.330;2022-10-22T14:10:22;9.88;;;5.47;;
46561;SDS011;32289;42.688;23.330;2022-10-22T14:14:03;8.32;;;4.38;;
46561;SDS011;32289;42.688;23.330;2022-10-22T14:17:50;11.48;;;5.35;;
46561;SDS011;32289;42.688;23.330;2022-10-22T14:21:34;14.20;;;7.13;;
46561;SDS011;32289;42.688;23.330;2022-10-22T14:25:18;13.77;;;7.50;;
46561;SDS011;32289;42.688;23.330;2022-10-22T14:29:01;9.20;;;5.65;;
46561;SDS011;32289;42.688;23.330;2022-10-22T14:32:42;11.82;;;5.97;;
46561;SDS011;32289;42.688;23.330;2022-10-22T14:36:23;14.45;;;6.57;;
46561;SDS011;32289;42.688;23.330;2022-10-22T14:40:04;17.00;;;8.48;;
46561;SDS011;32289;42.688;23.330;2022-10-22T14:43:45;14.52;;;8.40;;
46561;SDS011;32289;42.688;23.330;2022-10-22T14:47:27;12.50;;;7.53;;
46561;SDS011;32289;42.688;23.330;2022-10-22T14:51:11;14.25;;;7.45;;
46561;SDS011;32289;42.688;23.330;2022-10-22T14:54:53;16.55;;;7.72;;
46561;SDS011;32289;42.688;23.330;2022-10-22T14:58:34;13.75;;;7.20;;
46561;SDS011;32289;42.688;23.330;2022-10-22T15:02:15;17.55;;;8.32;;
46561;SDS011;32289;42.688;23.330;2022-10-22T15:05:56;14.25;;;6.55;;
46561;SDS011;32289;42.688;23.330;2022-10-22T15:09:37;16.10;;;7.40;;
46561;SDS011;32289;42.688;23.330;2022-10-22T15:13:17;14.90;;;7.43;;
46561;SDS011;32289;42.688;23.330;2022-10-22T15:16:58;14.40;;;7.15;;
46561;SDS011;32289;42.688;23.330;2022-10-22T15:20:39;13.50;;;7.55;;
46561;SDS011;32289;42.688;23.330;2022-10-22T15:24:20;14.73;;;7.93;;
46561;SDS011;32289;42.688;23.330;2022-10-22T15:28:00;17.48;;;8.13;;
46561;SDS011;32289;42.688;23.330;2022-10-22T15:31:48;17.02;;;7.85;;
46561;SDS011;32289;42.688;23.330;2022-10-22T15:35:31;13.30;;;8.50;;
46561;SDS011;32289;42.688;23.330;2022-10-22T15:39:11;21.15;;;9.50;;
46561;SDS011;32289;42.688;23.330;2022-10-22T15:42:52;21.02;;;9.02;;
46561;SDS011;32289;42.688;23.330;2022-10-22T15:46:34;16.92;;;7.82;;
46561;SDS011;32289;42.688;23.330;2022-10-22T15:50:15;17.83;;;7.53;;
46561;SDS011;32289;42.688;23.330;2022-10-22T15:53:56;21.02;;;8.45;;
46561;SDS011;32289;42.688;23.330;2022-10-22T15:57:38;22.92;;;8.77;;
46561;SDS011;32289;42.688;23.330;2022-10-22T16:01:18;23.98;;;8.73;;
46561;SDS011;32289;42.688;23.330;2022-10-22T16:04:59;22.63;;;10.85;;
46561;SDS011;32289;42.688;23.330;2022-10-22T16:08:40;24.33;;;10.00;;
46561;SDS011;32289;42.688;23.330;2022-10-22T16:12:21;25.80;;;11.95;;
46561;SDS011;32289;42.688;23.330;2022-10-22T16:16:05;22.42;;;9.95;;
46561;SDS011;32289;42.688;23.330;2022-10-22T16:19:49;20.80;;;9.68;;
46561;SDS011;32289;42.688;23.330;2022-10-22T16:23:29;21.33;;;8.95;;
46561;SDS011;32289;42.688;23.330;2022-10-22T16:27:10;23.65;;;9.57;;
46561;SDS011;32289;42.688;23.330;2022-10-22T16:30:51;26.27;;;11.38;;
46561;SDS011;32289;42.688;23.330;2022-10-22T16:34:32;17.48;;;10.07;;
46561;SDS011;32289;42.688;23.330;2022-10-22T16:38:12;29.08;;;12.43;;
46561;SDS011;32289;42.688;23.330;2022-10-22T16:41:53;20.83;;;8.85;;
46561;SDS011;32289;42.688;23.330;2022-10-22T16:45:34;25.77;;;8.73;;
46561;SDS011;32289;42.688;23.330;2022-10-22T16:49:15;19.17;;;8.23;;
46561;SDS011;32289;42.688;23.330;2022-10-22T16:52:55;19.35;;;9.55;;
46561;SDS011;32289;42.688;23.330;2022-10-22T16:56:36;21.85;;;11.77;;
46561;SDS011;32289;42.688;23.330;2022-10-22T17:00:17;17.50;;;9.35;;
46561;SDS011;32289;42.688;23.330;2022-10-22T17:03:58;17.10;;;8.73;;
46561;SDS011;32289;42.688;23.330;2022-10-22T17:07:39;20.38;;;9.13;;
46561;SDS011;32289;42.688;23.330;2022-10-22T17:11:21;19.67;;;9.77;;
46561;SDS011;32289;42.688;23.330;2022-10-22T17:15:03;20.35;;;10.27;;
46561;SDS011;32289;42.688;23.330;2022-10-22T17:18:45;23.17;;;10.80;;
46561;SDS011;32289;42.688;23.330;2022-10-22T17:22:26;19.05;;;9.85;;
46561;SDS011;32289;42.688;23.330;2022-10-22T17:26:08;17.02;;;8.95;;
46561;SDS011;32289;42.688;23.330;2022-10-22T17:29:54;21.35;;;9.85;;
46561;SDS011;32289;42.688;23.330;2022-10-22T17:33:35;20.83;;;8.65;;
46561;SDS011;32289;42.688;23.330;2022-10-22T17:37:16;23.10;;;10.38;;
46561;SDS011;32289;42.688;23.330;2022-10-22T17:40:57;19.90;;;9.15;;
46561;SDS011;32289;42.688;23.330;2022-10-22T17:44:37;22.23;;;9.20;;
46561;SDS011;32289;42.688;23.330;2022-10-22T17:48:18;25.77;;;11.32;;
46561;SDS011;32289;42.688;23.330;2022-10-22T17:51:59;20.60;;;10.48;;
46561;SDS011;32289;42.688;23.330;2022-10-22T17:55:40;23.38;;;9.23;;
46561;SDS011;32289;42.688;23.330;2022-10-22T17:59:21;32.08;;;9.65;;
46561;SDS011;32289;42.688;23.330;2022-10-22T18:03:01;21.85;;;9.50;;
46561;SDS011;32289;42.688;23.330;2022-10-22T18:06:42;22.60;;;11.13;;
46561;SDS011;32289;42.688;23.330;2022-10-22T18:10:25;26.48;;;10.27;;
46561;SDS011;32289;42.688;23.330;2022-10-22T18:14:08;23.88;;;10.23;;
46561;SDS011;32289;42.688;23.330;2022-10-22T18:17:48;22.98;;;10.13;;
46561;SDS011;32289;42.688;23.330;2022-10-22T18:21:29;19.73;;;10.77;;
46561;SDS011;32289;42.688;23.330;2022-10-22T18:25:10;19.77;;;9.32;;
46561;SDS011;32289;42.688;23.330;2022-10-22T18:28:51;25.98;;;11.70;;
46561;SDS011;32289;42.688;23.330;2022-10-22T18:32:32;28.08;;;11.25;;
46561;SDS011;32289;42.688;23.330;2022-10-22T18:36:15;29.33;;;12.45;;
46561;SDS011;32289;42.688;23.330;2022-10-22T18:39:58;26.73;;;10.63;;
46561;SDS011;32289;42.688;23.330;2022-10-22T18:43:38;27.58;;;10.90;;
46561;SDS011;32289;42.688;23.330;2022-10-22T18:47:19;24.85;;;11.60;;
46561;SDS011;32289;42.688;23.330;2022-10-22T18:51:04;23.33;;;12.52;;
46561;SDS011;32289;42.688;23.330;2022-10-22T18:54:46;27.23;;;14.15;;
46561;SDS011;32289;42.688;23.330;2022-10-22T18:58:27;28.67;;;13.80;;
46561;SDS011;32289;42.688;23.330;2022-10-22T19:02:08;45.33;;;13.93;;
46561;SDS011;32289;42.688;23.330;2022-10-22T19:05:50;29.98;;;12.95;;
46561;SDS011;32289;42.688;23.330;2022-10-22T19:09:32;33.65;;;13.40;;
46561;SDS011;32289;42.688;23.330;2022-10-22T19:13:14;28.80;;;14.40;;
46561;SDS011;32289;42.688;23.330;2022-10-22T19:16:56;40.15;;;14.18;;
46561;SDS011;32289;42.688;23.330;2022-10-22T19:20:37;29.38;;;12.50;;
46561;SDS011;32289;42.688;23.330;2022-10-22T19:24:18;26.75;;;12.32;;
46561;SDS011;32289;42.688;23.330;2022-10-22T19:27:59;25.98;;;11.07;;
46561;SDS011;32289;42.688;23.330;2022-10-22T19:31:40;33.88;;;13.43;;
46561;SDS011;32289;42.688;23.330;2022-10-22T19:35:22;32.83;;;13.55;;
46561;SDS011;32289;42.688;23.330;2022-10-22T19:39:03;38.33;;;13.50;;
46561;SDS011;32289;42.688;23.330;2022-10-22T19:42:44;35.97;;;15.57;;
46561;SDS011;32289;42.688;23.330;2022-10-22T19:46:29;29.57;;;11.83;;
46561;SDS011;32289;42.688;23.330;2022-10-22T19:50:11;30.38;;;12.50;;
46561;SDS011;32289;42.688;23.330;2022-10-22T19:53:55;22.40;;;11.98;;
46561;SDS011;32289;42.688;23.330;2022-10-22T19:57:38;24.33;;;10.25;;
46561;SDS011;32289;42.688;23.330;2022-10-22T20:01:18;39.50;;;16.83;;
46561;SDS011;32289;42.688;23.330;2022-10-22T20:04:59;23.45;;;10.10;;
46561;SDS011;32289;42.688;23.330;2022-10-22T20:08:40;36.70;;;13.88;;
46561;SDS011;32289;42.688;23.330;2022-10-22T20:12:21;26.42;;;11.60;;
46561;SDS011;32289;42.688;23.330;2022-10-22T20:16:02;30.90;;;11.93;;
46561;SDS011;32289;42.688;23.330;2022-10-22T20:19:43;32.72;;;13.90;;
46561;SDS011;32289;42.688;23.330;2022-10-22T20:23:24;26.98;;;12.13;;
46561;SDS011;32289;42.688;23.330;2022-10-22T20:27:05;26.48;;;11.68;;
46561;SDS011;32289;42.688;23.330;2022-10-22T20:30:45;25.67;;;10.85;;
46561;SDS011;32289;42.688;23.330;2022-10-22T20:34:26;29.88;;;11.32;;
46561;SDS011;32289;42.688;23.330;2022-10-22T20:38:09;21.52;;;12.02;;
46561;SDS011;32289;42.688;23.330;2022-10-22T20:41:53;30.23;;;11.90;;
46561;SDS011;32289;42.688;23.330;2022-10-22T20:45:33;20.50;;;11.07;;
46561;SDS011;32289;42.688;23.330;2022-10-22T20:49:15;29.80;;;11.68;;
46561;SDS011;32289;42.688;23.330;2022-10-22T20:52:57;28.95;;;11.10;;
46561;SDS011;32289;42.688;23.330;2022-10-22T20:56:38;31.65;;;12.18;;
46561;SDS011;32289;42.688;23.330;2022-10-22T21:00:20;34.55;;;13.35;;
46561;SDS011;32289;42.688;23.330;2022-10-22T21:04:01;25.52;;;11.38;;
46561;SDS011;32289;42.688;23.330;2022-10-22T21:07:42;19.23;;;11.05;;
46561;SDS011;32289;42.688;23.330;2022-10-22T21:11:24;20.25;;;10.18;;
46561;SDS011;32289;42.688;23.330;2022-10-22T21:15:04;28.75;;;11.80;;
46561;SDS011;32289;42.688;23.330;2022-10-22T21:18:45;30.38;;;12.48;;
46561;SDS011;32289;42.688;23.330;2022-10-22T21:22:27;24.55;;;11.18;;
46561;SDS011;32289;42.688;23.330;2022-10-22T21:26:07;25.95;;;10.73;;
46561;SDS011;32289;42.688;23.330;2022-10-22T21:29:48;20.48;;;10.65;;
46561;SDS011;32289;42.688;23.330;2022-10-22T21:33:29;28.83;;;10.40;;
46561;SDS011;32289;42.688;23.330;2022-10-22T21:37:10;19.17;;;8.95;;
46561;SDS011;32289;42.688;23.330;2022-10-22T21:40:50;19.02;;;9.77;;
46561;SDS011;32289;42.688;23.330;2022-10-22T21:44:31;19.48;;;10.00;;
46561;SDS011;32289;42.688;23.330;2022-10-22T21:48:14;22.65;;;10.38;;
46561;SDS011;32289;42.688;23.330;2022-10-22T21:51:54;18.88;;;9.55;;
46561;SDS011;32289;42.688;23.330;2022-10-22T21:55:39;30.95;;;10.20;;
46561;SDS011;32289;42.688;23.330;2022-10-22T21:59:20;23.00;;;9.50;;
46561;SDS011;32289;42.688;23.330;2022-10-22T22:03:00;22.85;;;11.85;;
46561;SDS011;32289;42.688;23.330;2022-10-22T22:06:41;19.90;;;9.88;;
46561;SDS011;32289;42.688;23.330;2022-10-22T22:10:22;19.02;;;10.70;;
46561;SDS011;32289;42.688;23.330;2022-10-22T22:14:06;22.83;;;9.88;;
46561;SDS011;32289;42.688;23.330;2022-10-22T22:17:46;20.52;;;11.48;;
46561;SDS011;32289;42.688;23.330;2022-10-22T22:21:27;37.17;;;11.63;;
46561;SDS011;32289;42.688;23.330;2022-10-22T22:25:08;23.58;;;10.40;;
46561;SDS011;32289;42.688;23.330;2022-10-22T22:28:50;23.52;;;10.35;;
46561;SDS011;32289;42.688;23.330;2022-10-22T22:32:30;25.40;;;10.93;;
46561;SDS011;32289;42.688;23.330;2022-10-22T22:36:12;22.52;;;10.18;;
46561;SDS011;32289;42.688;23.330;2022-10-22T22:39:52;19.48;;;10.88;;
46561;SDS011;32289;42.688;23.330;2022-10-22T22:43:34;27.83;;;12.35;;
46561;SDS011;32289;42.688;23.330;2022-10-22T22:47:15;28.58;;;11.35;;
46561;SDS011;32289;42.688;23.330;2022-10-22T22:50:56;22.17;;;10.23;;
46561;SDS011;32289;42.688;23.330;2022-10-22T22:54:39;22.77;;;11.00;;
46561;SDS011;32289;42.688;23.330;2022-10-22T22:58:19;26.27;;;11.75;;
46561;SDS011;32289;42.688;23.330;2022-10-22T23:02:00;22.85;;;11.52;;
46561;SDS011;32289;42.688;23.330;2022-10-22T23:05:41;21.48;;;9.95;;
46561;SDS011;32289;42.688;23.330;2022-10-22T23:09:21;19.58;;;10.57;;
46561;SDS011;32289;42.688;23.330;2022-10-22T23:13:02;23.42;;;9.93;;
46561;SDS011;32289;42.688;23.330;2022-10-22T23:16:44;19.38;;;8.88;;